createdAt,value
2022-11-07T00:02:21.698Z,12.70
2022-11-07T00:04:49.693Z,12.79
2022-11-07T00:07:17.596Z,12.73
2022-11-07T00:09:46.813Z,12.61
2022-11-07T00:12:14.707Z,12.36
2022-11-07T00:14:42.585Z,12.28
2022-11-07T00:17:10.574Z,12.28
2022-11-07T00:19:38.444Z,12.23
2022-11-07T00:22:06.352Z,12.10
2022-11-07T00:24:35.715Z,12.07
2022-11-07T00:27:05.259Z,12.25
2022-11-07T00:29:33.277Z,12.40
2022-11-07T00:32:01.280Z,12.52
2022-11-07T00:34:29.166Z,12.62
2022-11-07T00:36:57.176Z,12.58
2022-11-07T00:39:25.110Z,12.71
2022-11-07T00:41:52.983Z,12.72
2022-11-07T00:44:22.805Z,12.73
2022-11-07T00:46:50.735Z,12.76
2022-11-07T00:49:18.619Z,12.65
2022-11-07T00:51:46.619Z,12.73
2022-11-07T00:54:14.532Z,12.73
2022-11-07T00:56:42.497Z,12.80
2022-11-07T00:59:10.991Z,12.85
2022-11-07T01:01:40.448Z,12.87
2022-11-07T01:04:26.073Z,12.75
2022-11-07T01:06:54.276Z,12.88
2022-11-07T01:09:22.924Z,12.60
2022-11-07T01:11:51.120Z,12.80
2022-11-07T01:14:21.850Z,12.80
2022-11-07T01:16:52.073Z,12.70
2022-11-07T01:19:20.827Z,12.86
2022-11-07T01:21:48.817Z,12.89
2022-11-07T01:24:17.354Z,12.90
2022-11-07T01:26:47.888Z,12.84
2022-11-07T01:29:16.413Z,12.71
2022-11-07T01:31:44.287Z,12.73
2022-11-07T01:34:13.772Z,12.90
2022-11-07T01:36:41.688Z,12.89
2022-11-07T01:39:11.932Z,12.91
2022-11-07T01:41:40.654Z,12.68
2022-11-07T01:44:41.816Z,13.00
2022-11-07T01:47:12.435Z,12.84
2022-11-07T01:49:43.617Z,12.64
2022-11-07T01:52:15.529Z,12.71
2022-11-07T01:54:49.775Z,12.55
2022-11-07T01:57:23.022Z,12.41
2022-11-07T01:59:53.849Z,12.60
2022-11-07T02:02:23.458Z,12.69
2022-11-07T02:04:52.877Z,12.71
2022-11-07T02:07:22.972Z,12.61
2022-11-07T02:09:52.258Z,12.72
2022-11-07T02:12:20.921Z,12.73
2022-11-07T02:14:48.802Z,12.81
2022-11-07T02:17:17.707Z,12.75
2022-11-07T02:19:47.803Z,12.61
2022-11-07T02:22:23.468Z,12.61
2022-11-07T02:24:56.156Z,12.88
2022-11-07T02:27:26.813Z,12.83
2022-11-07T02:29:59.151Z,12.48
2022-11-07T02:32:27.050Z,12.52
2022-11-07T02:34:59.007Z,12.77
2022-11-07T02:37:31.773Z,12.85
2022-11-07T02:40:02.668Z,12.46
2022-11-07T02:42:43.547Z,12.49
2022-11-07T02:45:15.069Z,12.07
2022-11-07T02:47:43.353Z,12.83
2022-11-07T02:50:15.070Z,12.58
2022-11-07T02:52:43.348Z,12.75
2022-11-07T02:55:14.423Z,12.85
2022-11-07T02:57:42.854Z,12.68
2022-11-07T03:00:13.809Z,12.66
2022-11-07T03:02:47.067Z,12.70
2022-11-07T03:05:16.480Z,12.69
2022-11-07T03:07:45.051Z,12.63
2022-11-07T03:10:15.564Z,12.41
2022-11-07T03:12:44.011Z,12.46
2022-11-07T03:15:13.263Z,12.41
2022-11-07T03:17:41.457Z,12.44
2022-11-07T03:20:10.929Z,12.37
2022-11-07T03:22:38.922Z,12.25
2022-11-07T03:25:07.722Z,12.40
2022-11-07T03:27:37.003Z,11.97
2022-11-07T03:30:05.521Z,11.98
2022-11-07T03:32:34.848Z,11.92
2022-11-07T03:35:02.906Z,12.06
2022-11-07T03:37:30.883Z,11.90
2022-11-07T03:39:58.779Z,11.85
2022-11-07T03:42:26.721Z,12.14
2022-11-07T03:44:56.057Z,12.04
2022-11-07T03:47:24.053Z,11.83
2022-11-07T03:49:52.022Z,11.64
2022-11-07T03:52:20.145Z,11.65
2022-11-07T03:54:48.052Z,11.70
2022-11-07T03:57:15.954Z,11.66
2022-11-07T03:59:43.924Z,11.80
2022-11-07T04:02:13.339Z,11.78
2022-11-07T04:04:41.471Z,11.45
2022-11-07T04:07:09.938Z,11.87
2022-11-07T04:09:37.802Z,12.00
2022-11-07T04:12:23.853Z,12.13
2022-11-07T04:15:09.191Z,12.08
2022-11-07T04:17:38.465Z,12.13
2022-11-07T04:20:07.616Z,12.00
2022-11-07T04:22:35.600Z,12.00
2022-11-07T04:25:03.648Z,11.83
2022-11-07T04:27:42.702Z,11.96
2022-11-07T04:30:24.556Z,11.74
2022-11-07T04:32:55.662Z,11.74
2022-11-07T04:35:25.510Z,11.90
2022-11-07T04:37:53.735Z,11.95
2022-11-07T04:40:22.190Z,11.88
2022-11-07T04:42:51.039Z,11.89
2022-11-07T04:45:19.515Z,12.03
2022-11-07T04:47:48.100Z,12.07
2022-11-07T04:50:19.389Z,11.87
2022-11-07T04:52:47.865Z,11.74
2022-11-07T04:55:22.183Z,11.72
2022-11-07T04:57:50.240Z,11.84
2022-11-07T05:00:19.402Z,11.92
2022-11-07T05:02:47.786Z,11.88
2022-11-07T05:05:17.761Z,11.64
2022-11-07T05:07:46.108Z,11.41
2022-11-07T05:10:18.967Z,11.45
2022-11-07T05:12:46.863Z,11.40
2022-11-07T05:15:15.155Z,11.19
2022-11-07T05:17:43.215Z,11.17
2022-11-07T05:20:27.773Z,11.27
2022-11-07T05:23:16.016Z,11.36
2022-11-07T05:25:46.184Z,11.60
2022-11-07T05:28:15.540Z,11.54
2022-11-07T05:30:45.165Z,11.60
2022-11-07T05:33:14.656Z,11.64
2022-11-07T05:35:44.510Z,11.86
2022-11-07T05:38:13.069Z,11.92
2022-11-07T05:40:42.015Z,11.76
2022-11-07T05:43:12.136Z,11.79
2022-11-07T05:45:41.205Z,11.95
2022-11-07T05:48:10.879Z,12.00
2022-11-07T05:50:39.046Z,12.19
2022-11-07T05:53:08.947Z,12.10
2022-11-07T05:55:36.985Z,11.75
2022-11-07T05:58:10.407Z,11.57
2022-11-07T06:00:38.361Z,11.46
2022-11-07T06:03:06.431Z,11.59
2022-11-07T06:05:34.652Z,11.82
2022-11-07T06:08:02.527Z,12.13
2022-11-07T06:10:32.114Z,12.26
2022-11-07T06:13:01.189Z,12.13
2022-11-07T06:15:30.693Z,11.82
2022-11-07T06:18:00.680Z,11.70
2022-11-07T06:20:29.294Z,11.99
2022-11-07T06:22:59.272Z,11.83
2022-11-07T06:26:02.218Z,12.23
2022-11-07T06:28:30.104Z,12.35
2022-11-07T06:31:00.903Z,12.26
2022-11-07T06:33:29.889Z,12.08
2022-11-07T06:36:04.951Z,11.92
2022-11-07T06:38:32.939Z,12.08
2022-11-07T06:41:13.054Z,12.17
2022-11-07T06:43:41.345Z,12.35
2022-11-07T06:46:12.736Z,12.53
2022-11-07T06:48:41.178Z,12.48
2022-11-07T06:51:10.797Z,12.47
2022-11-07T06:53:39.451Z,12.36
2022-11-07T06:56:14.487Z,12.72
2022-11-07T06:58:42.488Z,12.46
2022-11-07T07:01:13.716Z,12.49
2022-11-07T07:03:42.403Z,12.49
2022-11-07T07:06:14.070Z,12.96
2022-11-07T07:08:42.264Z,12.93
2022-11-07T07:11:13.702Z,12.82
2022-11-07T07:13:42.419Z,12.99
2022-11-07T07:16:10.714Z,12.92
2022-11-07T07:18:38.679Z,12.71
2022-11-07T07:21:08.466Z,13.16
2022-11-07T07:23:37.939Z,13.34
2022-11-07T07:26:08.118Z,13.52
2022-11-07T07:28:37.478Z,13.65
2022-11-07T07:31:12.123Z,13.84
2022-11-07T07:33:40.290Z,13.98
2022-11-07T07:36:09.524Z,14.00
2022-11-07T07:38:37.725Z,14.17
2022-11-07T07:41:06.472Z,14.35
2022-11-07T07:43:35.323Z,14.20
2022-11-07T07:46:06.562Z,14.07
2022-11-07T07:48:34.805Z,14.05
2022-11-07T07:51:02.747Z,14.16
2022-11-07T07:53:30.697Z,14.02
2022-11-07T07:55:59.563Z,13.70
2022-11-07T07:58:27.613Z,13.92
2022-11-07T08:00:57.912Z,14.22
2022-11-07T08:03:32.010Z,14.10
2022-11-07T08:06:00.550Z,13.90
2022-11-07T08:08:30.516Z,14.15
2022-11-07T08:11:03.286Z,14.28
2022-11-07T08:13:31.307Z,14.52
2022-11-07T08:15:59.221Z,14.79
2022-11-07T08:18:28.523Z,14.76
2022-11-07T08:20:57.291Z,14.71
2022-11-07T08:23:25.658Z,15.07
2022-11-07T08:25:54.798Z,14.99
2022-11-07T08:28:24.521Z,14.96
2022-11-07T08:30:59.852Z,14.98
2022-11-07T08:33:29.405Z,14.97
2022-11-07T08:36:00.655Z,15.00
2022-11-07T08:38:29.383Z,14.85
2022-11-07T08:40:57.983Z,14.85
2022-11-07T08:43:26.429Z,14.97
2022-11-07T08:45:55.614Z,15.17
2022-11-07T08:48:24.459Z,15.15
2022-11-07T08:50:55.000Z,15.10
2022-11-07T08:53:23.500Z,15.29
2022-11-07T08:55:51.806Z,15.42
2022-11-07T08:58:20.449Z,15.60
2022-11-07T09:00:49.352Z,15.79
2022-11-07T09:03:43.706Z,15.90
2022-11-07T09:06:06.974Z,16.02
2022-11-07T09:08:34.902Z,15.89
2022-11-07T09:11:04.239Z,15.64
2022-11-07T09:13:32.977Z,15.39
2022-11-07T09:16:01.548Z,15.64
2022-11-07T09:18:30.242Z,15.75
2022-11-07T09:20:58.914Z,15.80
2022-11-07T09:23:28.689Z,15.69
2022-11-07T09:25:59.746Z,15.65
2022-11-07T09:28:27.883Z,15.45
2022-11-07T09:30:56.263Z,15.49
2022-11-07T09:33:25.350Z,15.80
2022-11-07T09:35:53.517Z,16.20
2022-11-07T09:38:21.618Z,16.26
2022-11-07T09:40:58.249Z,16.38
2022-11-07T09:43:47.633Z,16.29
2022-11-07T09:46:28.833Z,16.41
2022-11-07T09:49:02.230Z,16.63
2022-11-07T09:51:35.609Z,16.64
2022-11-07T09:54:08.997Z,16.51
2022-11-07T09:56:38.371Z,16.71
2022-11-07T09:59:14.244Z,16.61
2022-11-07T10:01:42.958Z,17.04
2022-11-07T10:04:25.293Z,16.15
2022-11-07T10:06:59.622Z,16.89
2022-11-07T10:09:35.773Z,17.13
2022-11-07T10:12:15.753Z,17.18
2022-11-07T10:14:53.898Z,17.23
2022-11-07T10:17:28.816Z,17.50
2022-11-07T10:20:14.441Z,17.69
2022-11-07T10:22:53.833Z,17.39
2022-11-07T10:25:26.761Z,16.55
2022-11-07T10:28:15.000Z,16.29
2022-11-07T10:30:44.627Z,16.64
2022-11-07T10:33:25.321Z,16.56
2022-11-07T10:35:57.878Z,16.72
2022-11-07T10:38:28.525Z,16.32
2022-11-07T10:40:56.998Z,16.39
2022-11-07T10:43:34.309Z,16.19
2022-11-07T10:46:04.279Z,16.02
2022-11-07T10:48:33.230Z,16.37
2022-11-07T10:51:01.178Z,16.43
2022-11-07T10:53:29.761Z,16.58
2022-11-07T10:55:57.753Z,16.73
2022-11-07T10:58:31.310Z,17.15
2022-11-07T11:01:02.317Z,17.03
2022-11-07T11:03:43.613Z,16.77
2022-11-07T11:06:25.515Z,17.13
2022-11-07T11:08:54.161Z,17.10
2022-11-07T11:11:31.788Z,17.05
2022-11-07T11:14:10.151Z,17.27
2022-11-07T11:16:40.862Z,17.17
2022-11-07T11:19:20.655Z,17.18
2022-11-07T11:21:50.680Z,17.12
2022-11-07T11:24:37.521Z,17.38
2022-11-07T11:27:14.047Z,17.61
2022-11-07T11:29:51.603Z,17.36
2022-11-07T11:32:25.260Z,17.22
2022-11-07T11:35:00.690Z,17.08
2022-11-07T11:37:28.673Z,17.19
2022-11-07T11:40:12.803Z,16.90
2022-11-07T11:42:49.385Z,17.03
2022-11-07T11:45:25.774Z,17.05
2022-11-07T11:48:00.866Z,16.87
2022-11-07T11:50:40.750Z,17.11
2022-11-07T11:53:15.922Z,17.26
2022-11-07T11:55:55.055Z,16.98
2022-11-07T11:58:37.997Z,17.00
2022-11-07T12:01:17.421Z,17.11
2022-11-07T12:03:59.481Z,17.31
2022-11-07T12:06:35.829Z,17.54
2022-11-07T12:09:34.073Z,17.85
2022-11-07T12:12:12.782Z,18.15
2022-11-07T12:14:58.033Z,18.23
2022-11-07T12:17:37.195Z,18.33
2022-11-07T12:20:19.394Z,18.39
2022-11-07T12:22:58.185Z,18.28
2022-11-07T12:25:31.893Z,17.74
2022-11-07T12:28:16.150Z,18.17
2022-11-07T12:30:55.539Z,18.38
2022-11-07T12:33:34.376Z,18.40
2022-11-07T12:36:04.110Z,18.39
2022-11-07T12:39:05.241Z,18.61
2022-11-07T12:41:40.744Z,18.73
2022-11-07T12:44:23.601Z,18.58
2022-11-07T12:46:54.364Z,18.22
2022-11-07T12:49:42.206Z,18.56
2022-11-07T12:52:27.179Z,18.50
2022-11-07T12:55:01.546Z,18.65
2022-11-07T12:57:34.115Z,18.60
2022-11-07T13:00:07.641Z,18.58
2022-11-07T13:02:48.158Z,18.37
2022-11-07T13:05:35.326Z,18.37
2022-11-07T13:08:11.942Z,18.01
2022-11-07T13:10:49.285Z,17.53
2022-11-07T13:13:26.106Z,17.81
2022-11-07T13:16:14.524Z,17.96
2022-11-07T13:21:16.321Z,18.15
2022-11-07T13:23:44.935Z,18.06
2022-11-07T13:26:45.079Z,17.96
2022-11-07T13:29:02.626Z,17.52
2022-11-07T13:31:36.795Z,17.80
2022-11-07T13:34:26.366Z,18.03
2022-11-07T13:37:02.396Z,18.14
2022-11-07T13:39:31.439Z,18.17
2022-11-07T13:42:01.566Z,18.25
2022-11-07T13:44:34.850Z,18.15
2022-11-07T13:47:06.799Z,18.22
2022-11-07T13:49:44.284Z,18.12
2022-11-07T13:52:18.718Z,17.79
2022-11-07T13:54:54.074Z,17.47
2022-11-07T13:57:31.111Z,17.20
2022-11-07T14:00:02.800Z,17.19
2022-11-07T14:02:32.893Z,17.43
2022-11-07T14:05:20.048Z,17.55
2022-11-07T14:07:54.215Z,17.16
2022-11-07T14:10:26.190Z,17.17
2022-11-07T14:13:01.591Z,17.29
2022-11-07T14:15:30.465Z,17.34
2022-11-07T14:17:58.538Z,17.30
2022-11-07T14:20:26.772Z,17.24
2022-11-07T14:22:58.188Z,17.22
2022-11-07T14:25:29.207Z,17.13
2022-11-07T14:27:57.449Z,17.24
2022-11-07T14:30:26.665Z,17.36
2022-11-07T14:32:56.740Z,17.28
2022-11-07T14:35:27.155Z,17.23
2022-11-07T14:37:57.922Z,17.21
2022-11-07T14:40:26.824Z,17.16
2022-11-07T14:42:55.126Z,17.12
2022-11-07T14:45:55.069Z,17.16
2022-11-07T14:48:14.466Z,16.95
2022-11-07T14:50:43.383Z,16.98
2022-11-07T14:53:22.558Z,16.97
2022-11-07T14:55:53.625Z,16.98
2022-11-07T14:58:24.788Z,16.98
2022-11-07T15:00:54.575Z,16.95
2022-11-07T15:03:25.355Z,16.93
2022-11-07T15:05:53.406Z,16.84
2022-11-07T15:08:31.668Z,16.79
2022-11-07T15:11:06.074Z,16.73
2022-11-07T15:13:35.797Z,16.72
2022-11-07T15:16:07.334Z,16.50
2022-11-07T15:18:40.085Z,16.48
2022-11-07T15:21:12.894Z,16.53
2022-11-07T15:23:42.289Z,16.50
2022-11-07T15:26:14.142Z,16.44
2022-11-07T15:28:46.709Z,16.39
2022-11-07T15:31:21.776Z,16.37
2022-11-07T15:33:50.002Z,16.32
2022-11-07T15:36:18.730Z,16.23
2022-11-07T15:38:49.390Z,16.15
2022-11-07T15:41:17.953Z,16.03
2022-11-07T15:43:46.205Z,16.04
2022-11-07T15:46:24.627Z,16.04
2022-11-07T15:48:52.503Z,16.03
2022-11-07T15:51:20.414Z,16.02
2022-11-07T15:53:49.882Z,16.01
2022-11-07T15:56:22.981Z,15.94
2022-11-07T15:58:51.457Z,15.92
2022-11-07T16:01:19.676Z,15.85
2022-11-07T16:03:47.717Z,15.77
2022-11-07T16:06:21.958Z,15.81
2022-11-07T16:08:51.241Z,15.69
2022-11-07T16:11:19.269Z,15.66
2022-11-07T16:13:47.309Z,15.61
2022-11-07T16:16:20.722Z,15.58
2022-11-07T16:18:51.012Z,15.54
2022-11-07T16:21:19.524Z,15.48
2022-11-07T16:23:49.734Z,15.43
2022-11-07T16:26:27.113Z,15.38
2022-11-07T16:28:55.114Z,15.24
2022-11-07T16:31:23.269Z,15.33
2022-11-07T16:33:53.334Z,15.36
2022-11-07T16:36:24.369Z,15.21
2022-11-07T16:38:53.199Z,15.16
2022-11-07T16:41:23.576Z,15.14
2022-11-07T16:43:51.859Z,14.99
2022-11-07T16:46:22.547Z,15.14
2022-11-07T16:48:53.127Z,15.14
2022-11-07T16:51:22.823Z,15.02
2022-11-07T16:53:50.901Z,15.02
2022-11-07T16:56:32.237Z,15.07
2022-11-07T16:59:00.791Z,14.99
2022-11-07T17:01:29.634Z,14.94
2022-11-07T17:03:57.692Z,14.89
2022-11-07T17:06:29.092Z,14.91
2022-11-07T17:09:05.014Z,14.52
2022-11-07T17:11:38.233Z,14.51
2022-11-07T17:14:06.137Z,14.34
2022-11-07T17:16:36.907Z,14.01
2022-11-07T17:19:05.527Z,13.86
2022-11-07T17:21:36.292Z,13.70
2022-11-07T17:24:06.172Z,14.02
2022-11-07T17:26:37.688Z,13.81
2022-11-07T17:29:09.504Z,13.82
2022-11-07T17:31:37.413Z,13.85
2022-11-07T17:34:05.261Z,13.85
2022-11-07T17:36:37.451Z,13.97
2022-11-07T17:39:11.211Z,14.06
2022-11-07T17:41:39.912Z,14.07
2022-11-07T17:44:09.888Z,13.99
2022-11-07T17:46:40.954Z,13.99
2022-11-07T17:49:09.662Z,13.82
2022-11-07T17:51:37.748Z,13.64
2022-11-07T17:54:06.037Z,13.70
2022-11-07T17:56:35.246Z,13.47
2022-11-07T17:59:05.510Z,13.51
2022-11-07T18:01:37.297Z,13.33
2022-11-07T18:04:07.071Z,12.91
2022-11-07T18:06:36.763Z,13.16
2022-11-07T18:09:06.147Z,12.89
2022-11-07T18:11:36.180Z,12.72
2022-11-07T18:14:04.749Z,12.58
2022-11-07T18:16:36.112Z,12.26
2022-11-07T18:22:50.284Z,11.70
2022-11-07T18:25:18.667Z,11.50
2022-11-07T18:27:46.538Z,11.42
2022-11-07T18:30:14.955Z,11.75
2022-11-07T18:32:44.288Z,12.07
2022-11-07T18:35:12.243Z,12.12
2022-11-07T18:37:40.143Z,12.18
2022-11-07T18:40:11.586Z,11.97
2022-11-07T18:42:43.269Z,12.04
2022-11-07T18:45:11.544Z,11.90
2022-11-07T18:47:39.599Z,12.02
2022-11-07T18:50:11.201Z,11.96
2022-11-07T18:52:39.134Z,11.56
2022-11-07T18:55:11.149Z,11.34
2022-11-07T18:57:39.247Z,11.08
2022-11-07T19:00:13.414Z,10.86
2022-11-07T19:02:41.853Z,10.79
2022-11-07T19:05:11.241Z,10.80
2022-11-07T19:07:42.971Z,10.88
2022-11-07T19:10:12.260Z,11.02
2022-11-07T19:12:40.529Z,11.01
2022-11-07T19:15:10.975Z,11.34
2022-11-07T19:17:38.893Z,11.34
2022-11-07T19:20:09.125Z,11.29
2022-11-07T19:22:38.405Z,11.11
2022-11-07T19:25:06.925Z,11.04
2022-11-07T19:27:34.949Z,11.23
2022-11-07T19:30:02.997Z,11.14
2022-11-07T19:32:30.959Z,11.03
2022-11-07T19:34:58.938Z,10.76
2022-11-07T19:37:26.876Z,10.85
2022-11-07T19:39:56.111Z,10.87
2022-11-07T19:42:28.136Z,10.84
2022-11-07T19:44:56.857Z,10.84
2022-11-07T19:47:24.797Z,10.74
2022-11-07T19:49:52.862Z,11.03
2022-11-07T19:52:20.757Z,10.82
2022-11-07T19:54:50.871Z,10.27
2022-11-07T19:57:20.146Z,10.92
2022-11-07T19:59:48.076Z,10.84
2022-11-07T20:02:32.461Z,10.69
2022-11-07T20:05:01.478Z,10.67
2022-11-07T20:07:29.448Z,10.55
2022-11-07T20:09:58.776Z,10.59
2022-11-07T20:12:28.296Z,10.73
2022-11-07T20:14:56.263Z,10.95
2022-11-07T20:17:24.274Z,10.92
2022-11-07T20:19:52.258Z,11.05
2022-11-07T20:22:20.189Z,11.12
2022-11-07T20:24:48.139Z,10.99
2022-11-07T20:27:16.123Z,10.97
2022-11-07T20:29:45.368Z,10.95
2022-11-07T20:32:13.219Z,11.11
2022-11-07T20:34:41.224Z,10.97
2022-11-07T20:37:12.005Z,11.08
2022-11-07T20:39:42.535Z,10.98
2022-11-07T20:42:16.060Z,10.85
2022-11-07T20:44:45.435Z,10.93
2022-11-07T20:47:13.419Z,10.96
2022-11-07T20:49:42.527Z,10.70
2022-11-07T20:52:10.801Z,10.75
2022-11-07T20:54:38.757Z,10.69
2022-11-07T20:57:07.253Z,10.69
2022-11-07T20:59:35.275Z,10.64
2022-11-07T21:02:04.627Z,10.88
2022-11-07T21:04:50.018Z,10.59
2022-11-07T21:07:23.708Z,10.55
2022-11-07T21:09:51.588Z,10.62
2022-11-07T21:12:19.529Z,10.55
2022-11-07T21:14:47.430Z,10.34
2022-11-07T21:17:16.794Z,10.36
2022-11-07T21:19:44.655Z,10.54
2022-11-07T21:22:12.574Z,10.34
2022-11-07T21:24:40.442Z,10.09
2022-11-07T21:27:08.350Z,10.32
2022-11-07T21:29:36.383Z,10.26
2022-11-07T21:32:06.813Z,10.10
2022-11-07T21:34:37.320Z,10.35
2022-11-07T21:37:05.432Z,10.11
2022-11-07T21:39:33.350Z,10.03
2022-11-07T21:42:01.356Z,10.15
2022-11-07T21:44:29.286Z,10.20
2022-11-07T21:46:57.388Z,10.10
2022-11-07T21:49:25.306Z,10.02
2022-11-07T21:51:56.936Z,9.81
2022-11-07T21:54:25.071Z,9.50
2022-11-07T21:56:53.154Z,9.65
2022-11-07T21:59:21.307Z,9.62
2022-11-07T22:01:50.075Z,9.56
2022-11-07T22:04:18.118Z,9.64
2022-11-07T22:06:47.148Z,9.74
2022-11-07T22:09:17.927Z,9.66
2022-11-07T22:11:46.160Z,9.82
2022-11-07T22:14:15.471Z,9.76
2022-11-07T22:16:43.645Z,9.67
2022-11-07T22:19:12.921Z,9.90
2022-11-07T22:21:41.288Z,9.72
2022-11-07T22:24:09.659Z,9.74
2022-11-07T22:26:38.906Z,9.83
2022-11-07T22:29:06.794Z,9.76
2022-11-07T22:31:35.123Z,9.70
2022-11-07T22:34:03.328Z,9.98
2022-11-07T22:36:31.286Z,10.03
2022-11-07T22:38:59.746Z,10.08
2022-11-07T22:41:29.198Z,10.04
2022-11-07T22:44:02.090Z,9.91
2022-11-07T22:46:32.048Z,9.89
2022-11-07T22:49:00.566Z,10.04
2022-11-07T22:51:30.673Z,10.14
2022-11-07T22:53:59.690Z,9.86
2022-11-07T22:56:27.819Z,9.69
2022-11-07T22:58:55.743Z,9.78
2022-11-07T23:01:26.859Z,10.01
2022-11-07T23:03:55.811Z,10.11
2022-11-07T23:06:24.999Z,9.95
2022-11-07T23:08:53.417Z,10.11
2022-11-07T23:14:14.408Z,10.46
2022-11-07T23:16:48.389Z,10.29
2022-11-07T23:19:18.818Z,10.33
2022-11-07T23:21:46.919Z,10.40
2022-11-07T23:24:15.047Z,10.43
2022-11-07T23:26:42.945Z,10.05
2022-11-07T23:29:14.542Z,10.15
2022-11-07T23:31:46.836Z,10.33
2022-11-07T23:34:15.408Z,10.33
2022-11-07T23:36:44.852Z,10.35
2022-11-07T23:39:15.408Z,10.45
2022-11-07T23:41:43.660Z,10.67
2022-11-07T23:44:12.050Z,10.28
2022-11-07T23:46:57.351Z,10.12
2022-11-07T23:49:44.017Z,10.07
2022-11-07T23:52:11.902Z,10.22
2022-11-07T23:54:57.489Z,10.15
2022-11-07T23:57:25.785Z,10.06
